Pagina principală
METAR-TAF:

METAR-TAF

Aeroporturi :

Santa Ana del Yacuma, Bolivia

Latitudine: 13-46S, longitudine: 065-26W, elevație: 144 m

Observații meteo curente

Raportul a fost făcut în urmă cu 4 ore și 56 de minute, la 23:00 UTC
Vânt calm
Temperatură 28°C
Umiditate 89%
Presiune 1010 hPa
Vizibilitate de 10 km sau mai mult

METAR: SLSA 242300Z 00000KT 9999 NSC 28/26 Q1010

Ora: 23:56 (03:56 UTC)


TAF: lipsă

Observații și prognoze meteo pentru peste 4.000 de aeroporturi (rapoarte METAR și TAF).

Stațiile disponibile sunt reprezentate pe hartă prin puncte galbene și roșii.

Țineți indicatorul mouse-ului pe punctul dorit pentru a vedea denumirea stației.

Apoi, faceți clic pentru a vedea observațiile și prognozele meteorologice.

Pentru a schimba harta: Pentru mărire, faceți clic pe butoanele verzi cu cruce neagră; pentru micșorare, pe butonul verde cu o liniuță; pentru hărți învecinate, pe săgețile verzi.


METAR-TAF: